Flight Track Log - Related Links

Times and Time Zones

All times are in EDT time to prevent confusion due to time zone crossing. See the CSJ405 flight status page for this flight to view local times or setup timezone preferences in your user account.

Time Position Orientation Groundspeed Altitude Reporting Facility
EDT Latitude Longitude Course Direction KTS MPH feet Rate Location/Type
Tue 08:07:22 PM 40.8333 -74.2833 217° Southwest 108 124 2,200  Level New York TRACON
Tue 08:08:22 PM 40.8000 -74.3167 217° Southwest 136 157 3,000 800 Climbing New York TRACON
Tue 08:09:22 PM 40.8333 -74.3500 323° Northwest 148 170 3,800 950 Climbing New York TRACON
Tue 08:10:22 PM 40.8667 -74.3333 21° North 137 158 4,900 1,158 Climbing New York TRACON
Tue 08:11:16 PM 40.8833 -74.3167 37° Northeast 121 139 6,000 1,100 Climbing New York TRACON
Tue 08:12:22 PM 40.9333 -74.3167 360° North 137 158 7,100 857 Climbing New York TRACON
Tue 08:13:22 PM 40.9667 -74.3500 323° Northwest 147 169 7,800 800 Climbing New York TRACON
Tue 08:14:22 PM 41.0000 -74.3667 339° North 152 175 8,700 650 Climbing New York TRACON
Tue 08:15:22 PM 41.0333 -74.4000 323° Northwest 158 182 9,100 200 Climbing New York TRACON
Tue 08:16:22 PM 41.0833 -74.4167 346° North 175 201 9,100  Level New York TRACON
Tue 08:17:22 PM 41.1333 -74.4333 346° North 178 205 9,100 -24 Level New York TRACON
Tue 08:19:00 PM 41.1992 -74.4163 339° North  Level FlightAware Approximate
Tue 08:26:00 PM 41.4261 -74.7484 321° Northwest  Level FlightAware Approximate
Tue 08:27:00 PM 41.4629 -74.7880 321° Northwest  Level FlightAware Approximate
Tue 08:28:00 PM 41.4997 -74.8277 321° Northwest  Level FlightAware Approximate
Tue 08:29:00 PM 41.5365 -74.8674 321° Northwest  Level FlightAware Approximate
Tue 08:30:00 PM 41.5720 -74.9090 308° West  Level FlightAware Approximate
Tue 08:31:00 PM 41.6013 -74.9587 308° West  Level FlightAware Approximate
Tue 08:32:00 PM 41.6306 -75.0084 308° West  Level FlightAware Approximate
Tue 08:33:00 PM 41.6599 -75.0581 308° West  Level FlightAware Approximate
Tue 08:34:00 PM 41.6891 -75.1079 308° West  Level FlightAware Approximate
Tue 08:35:00 PM 41.7184 -75.1578 308° West  Level FlightAware Approximate
Tue 08:36:00 PM 41.7468 -75.2080 306° West  Level FlightAware Approximate
Tue 08:37:00 PM 41.7746 -75.2589 306° West  Level FlightAware Approximate
Tue 08:38:00 PM 41.8024 -75.3098 306° West  Level FlightAware Approximate
Tue 08:39:00 PM 41.8301 -75.3608 306° West  Level FlightAware Approximate
Tue 08:40:00 PM 41.8590 -75.4106 308° West  Level FlightAware Approximate
Tue 08:41:00 PM 41.8881 -75.4603 308° West  Level FlightAware Approximate
Tue 08:42:00 PM 41.9171 -75.5101 308° West  Level FlightAware Approximate
Tue 08:43:00 PM 41.9460 -75.5599 308° West  Level FlightAware Approximate
Tue 08:44:00 PM 41.9751 -75.6096 308° West  Level FlightAware Approximate
Tue 08:45:00 PM 42.0042 -75.6594 308° West  Level FlightAware Approximate
Tue 08:46:00 PM 42.0332 -75.7092 308° West  Level FlightAware Approximate
Tue 08:47:00 PM 42.0622 -75.7590 308° West  Level FlightAware Approximate
Tue 08:48:00 PM 42.0912 -75.8090 308° West  Level FlightAware Approximate
Tue 08:49:00 PM 42.1202 -75.8589 308° West  Level FlightAware Approximate
Tue 08:50:00 PM 42.1491 -75.9089 308° West  Level FlightAware Approximate
Tue 08:51:00 PM 42.1780 -75.9590 308° West  Level FlightAware Approximate
Tue 08:52:00 PM 42.2069 -76.0091 308° West  Level FlightAware Approximate
Tue 08:53:00 PM 42.2358 -76.0592 308° West  Level FlightAware Approximate
Tue 08:54:00 PM 42.2646 -76.1094 308° West  Level FlightAware Approximate
Tue 08:55:00 PM 42.2935 -76.1596 308° West  Level FlightAware Approximate
Tue 08:56:00 PM 42.3223 -76.2099 308° West  Level FlightAware Approximate
Tue 08:57:00 PM 42.3511 -76.2602 308° West  Level FlightAware Approximate
Tue 08:58:00 PM 42.3799 -76.3106 308° West  Level FlightAware Approximate
Tue 08:59:00 PM 42.4077 -76.3619 306° West  Level FlightAware Approximate
Tue 09:00:00 PM 42.4355 -76.4134 306° West  Level FlightAware Approximate
Tue 09:01:00 PM 42.4632 -76.4649 306° West  Level FlightAware Approximate
Tue 09:02:00 PM 42.4908 -76.5165 306° West  Level FlightAware Approximate
Tue 09:02:35 PM 42.5864 -76.6939 306° West 179 206 8,000  Level Cleveland Center
Tue 09:03:00 PM 42.5185 -76.5681 306° West  Level FlightAware Approximate
Tue 09:03:05 PM 42.5997 -76.7186 306° West 179 206 8,000  Level Cleveland Center
Tue 09:04:00 PM 42.5461 -76.6197 306° West  Level FlightAware Approximate
Tue 09:04:06 PM 42.6286 -76.7731 306° West 176 203 8,000  Level Cleveland Center
Tue 09:05:00 PM 42.5737 -76.6714 306° West  Level FlightAware Approximate
Tue 09:05:07 PM 42.6597 -76.8250 309° West 178 205 8,000  Level Cleveland Center
Tue 09:06:00 PM 42.6013 -76.7232 306° West  Level FlightAware Approximate
Tue 09:06:07 PM 42.6906 -76.8797 307° West 181 208 8,000  Level Cleveland Center
Tue 09:07:00 PM 42.6289 -76.7750 306° West  Level FlightAware Approximate
Tue 09:07:08 PM 42.7217 -76.9400 305° West 182 209 8,000  Level Cleveland Center
Tue 09:08:09 PM 42.7547 -76.9975 308° West 189 217 7,600 -417 Descending Cleveland Center
Tue 09:09:03 PM 42.7794 -77.0528 301° West 196 226 7,200 -470 Descending Cleveland Center
Tue 09:10:04 PM 42.8125 -77.1103 308° West 196 226 6,700 -417 Descending Cleveland Center
Tue 09:10:58 PM 42.8433 -77.1653 307° West 194 223 6,400 -397 Descending Cleveland Center
Tue 09:12:05 PM 42.8786 -77.2314 306° West 195 224 5,900 -472 Descending Cleveland Center
Tue 09:13:05 PM 42.9114 -77.2892 308° West 196 226 5,400 -446 Descending Cleveland Center
Tue 09:14:06 PM 42.9464 -77.3469 310° West 195 224 5,000 -422 Descending Cleveland Center
Tue 09:15:13 PM 42.9817 -77.4131 306° West 193 222 4,500 -557 Descending Cleveland Center
Tue 09:16:26 PM 43.0169 -77.4853 304° West 192 221 3,700 -767 Descending Cleveland Center
Tue 09:17:26 PM 43.0478 -77.5489 304° West 195 224 2,800 -900 Descending Cleveland Center

Login

Don't have an account? Register now (free) for customized features, flight alerts, and more!